Time;durP1;ratioP1;P1;durP2;ratioP2;P2;SDS_P1;SDS_P2;PMS_P1;PMS_P2;Temp;Humidity;BMP_temperature;BMP_pressure;BME280_temperature;BME280_humidity;BME280_pressure;Samples;Min_cycle;Max_cycle;Signal;HPM_P1;HPM_P2
2023/03/16 00:01:41;;;;;;;8.82;4.57;;;;;;;2.39;80.47;101526.91;4973435;28;20093;-74
2023/03/16 00:04:06;;;;;;;9.65;4.63;;;;;;;2.42;80.77;101528.69;4980045;28;20031;-74
2023/03/16 00:06:32;;;;;;;9.55;4.80;;;;;;;2.47;80.27;101519.53;4980665;28;20104;-73
2023/03/16 00:08:57;;;;;;;8.30;4.38;;;;;;;2.48;79.66;101516.16;4987231;28;20074;-74
2023/03/16 00:11:25;;;;;;;7.32;4.85;;;;;;;2.49;80.28;101517.88;4984752;28;20508;-73
2023/03/16 00:13:51;;;;;;;9.05;4.45;;;;;;;2.52;79.73;101514.59;4972462;28;20482;-74
2023/03/16 00:16:16;;;;;;;9.52;4.40;;;;;;;2.54;79.31;101511.28;4973190;28;20025;-73
2023/03/16 00:18:42;;;;;;;7.57;4.18;;;;;;;2.58;79.18;101505.47;4969692;28;20454;-74
2023/03/16 00:21:07;;;;;;;8.07;4.43;;;;;;;2.53;79.98;101513.75;4976829;28;20046;-73
2023/03/16 00:23:34;;;;;;;13.85;4.65;;;;;;;2.48;80.27;101521.28;4975560;28;20446;-74
2023/03/16 00:26:03;;;;;;;8.70;4.20;;;;;;;2.43;80.57;101520.22;4979268;28;20046;-74
2023/03/16 00:28:33;;;;;;;8.95;4.45;;;;;;;2.37;80.91;101520.88;4973779;28;20088;-73
2023/03/16 00:31:13;;;;;;;10.05;5.57;;;;;;;2.29;80.71;101521.41;4975995;28;20184;-74
2023/03/16 00:33:41;;;;;;;10.95;5.07;;;;;;;2.30;81.20;101510.41;4971182;28;20087;-75
2023/03/16 00:36:08;;;;;;;6.63;4.10;;;;;;;2.32;80.99;101508.75;4968537;28;20121;-73
2023/03/16 00:38:38;;;;;;;7.07;4.25;;;;;;;2.35;80.76;101503.78;4971322;28;20042;-74
2023/03/16 00:41:06;;;;;;;9.77;4.28;;;;;;;2.33;80.51;101496.06;4966730;28;20419;-74
2023/03/16 00:43:39;;;;;;;6.63;4.05;;;;;;;2.40;80.28;101489.50;4974228;28;20491;-73
2023/03/16 00:46:08;;;;;;;11.75;5.32;;;;;;;2.54;79.53;101490.00;4975034;28;20077;-74
2023/03/16 00:48:41;;;;;;;9.00;4.20;;;;;;;2.63;78.64;101477.56;4977891;28;20042;-74
2023/03/16 00:51:11;;;;;;;6.93;4.10;;;;;;;2.67;78.72;101475.16;4968516;28;20049;-74
2023/03/16 00:53:38;;;;;;;8.02;4.65;;;;;;;2.82;77.39;101470.56;4971400;28;20129;-74
2023/03/16 00:56:04;;;;;;;10.48;4.55;;;;;;;2.90;77.31;101471.69;4973926;28;20116;-74
2023/03/16 00:58:34;;;;;;;11.18;3.85;;;;;;;2.95;76.59;101469.31;4975564;28;20038;-73
2023/03/16 01:01:06;;;;;;;5.47;3.90;;;;;;;3.03;76.67;101461.88;4973535;28;20058;-74
2023/03/16 01:03:31;;;;;;;9.25;3.80;;;;;;;3.08;75.67;101462.94;4973309;28;20069;-73
2023/03/16 01:05:59;;;;;;;8.25;3.78;;;;;;;3.10;75.37;101458.72;4981567;28;20092;-74
2023/03/16 01:08:29;;;;;;;9.73;3.90;;;;;;;3.13;75.61;101461.38;4972316;28;20687;-73
2023/03/16 01:10:54;;;;;;;7.82;3.83;;;;;;;3.24;75.04;101454.94;4967854;28;20051;-73
2023/03/16 01:13:20;;;;;;;7.97;3.70;;;;;;;3.30;74.36;101452.56;4976123;28;20376;-74
2023/03/16 01:15:49;;;;;;;8.35;3.50;;;;;;;3.35;74.32;101451.88;4973036;28;20070;-73
2023/03/16 01:18:14;;;;;;;6.97;4.18;;;;;;;3.37;74.08;101455.38;4977141;28;20050;-73
2023/03/16 01:20:39;;;;;;;5.28;3.25;;;;;;;3.36;74.41;101450.22;4971239;28;20061;-73
2023/03/16 01:23:05;;;;;;;6.63;3.50;;;;;;;3.39;73.94;101451.19;4972266;28;20051;-73
2023/03/16 01:25:31;;;;;;;5.35;3.55;;;;;;;3.41;73.64;101441.88;4972074;28;20869;-74
2023/03/16 01:27:57;;;;;;;8.25;3.30;;;;;;;3.43;73.64;101441.94;4972539;28;20091;-74
2023/03/16 01:30:22;;;;;;;5.90;3.35;;;;;;;3.43;73.40;101432.56;4978353;28;20034;-74
2023/03/16 01:32:48;;;;;;;6.00;3.20;;;;;;;3.41;73.17;101433.31;4978747;28;20534;-74
2023/03/16 01:35:13;;;;;;;11.55;4.22;;;;;;;3.40;74.17;101447.81;4985038;28;20682;-74
2023/03/16 01:37:39;;;;;;;6.32;3.60;;;;;;;3.32;75.12;101446.69;4970738;28;20034;-74
2023/03/16 01:40:05;;;;;;;5.63;3.42;;;;;;;3.25;75.85;101449.88;4969237;28;20037;-74
2023/03/16 01:42:31;;;;;;;6.13;3.60;;;;;;;3.21;76.05;101442.06;4972603;28;20097;-74
2023/03/16 01:45:04;;;;;;;7.32;3.25;;;;;;;3.15;76.18;101426.53;4985324;28;20838;-74
2023/03/16 01:47:36;;;;;;;5.68;3.20;;;;;;;3.16;75.72;101421.50;4992343;28;20057;-73
2023/03/16 01:50:03;;;;;;;9.00;4.05;;;;;;;3.15;75.14;101422.31;4989624;28;20046;-73
2023/03/16 01:52:32;;;;;;;5.90;3.50;;;;;;;3.13;75.32;101423.06;4973517;28;20060;-73
2023/03/16 01:55:01;;;;;;;7.28;3.40;;;;;;;3.13;75.49;101420.53;4984222;28;20067;-73
2023/03/16 01:57:34;;;;;;;3.88;2.80;;;;;;;3.14;74.94;101414.59;4972449;28;20034;-73
2023/03/16 02:00:09;;;;;;;5.32;3.30;;;;;;;3.14;74.80;101415.44;4970166;28;20531;-73
2023/03/16 02:02:38;;;;;;;7.93;3.72;;;;;;;3.12;75.24;101398.34;4989566;28;20046;-73
2023/03/16 02:05:12;;;;;;;5.30;3.00;;;;;;;3.17;74.61;101384.88;4971254;28;20054;-73
2023/03/16 02:07:45;;;;;;;7.70;3.67;;;;;;;3.26;73.85;101374.97;4971793;28;20046;-73
2023/03/16 02:10:13;;;;;;;8.10;3.10;;;;;;;3.21;73.80;101373.09;4974543;28;20455;-73
2023/03/16 02:12:39;;;;;;;9.10;3.20;;;;;;;3.17;74.39;101386.59;4971544;28;20098;-74
2023/03/16 02:15:05;;;;;;;4.03;2.58;;;;;;;3.16;74.17;101387.41;4970287;28;20042;-74
2023/03/16 02:17:32;;;;;;;5.63;3.08;;;;;;;3.15;74.52;101375.44;4973281;28;20043;-74
2023/03/16 02:20:16;;;;;;;5.38;2.67;;;;;;;3.17;74.55;101367.00;4970791;28;20112;-74
2023/03/16 02:22:47;;;;;;;4.35;2.60;;;;;;;3.17;73.79;101356.78;5001492;28;20736;-74
2023/03/16 02:25:16;;;;;;;5.53;3.08;;;;;;;3.17;74.09;101356.78;4980832;28;20026;-73
2023/03/16 02:28:09;;;;;;;4.75;2.78;;;;;;;3.19;73.83;101355.19;4973443;28;20692;-74
2023/03/16 02:30:35;;;;;;;4.38;2.55;;;;;;;3.21;73.63;101348.41;4975848;28;20038;-73
2023/03/16 02:33:03;;;;;;;4.03;2.85;;;;;;;3.27;72.38;101342.63;4970765;28;20035;-74
2023/03/16 02:35:30;;;;;;;4.82;2.60;;;;;;;3.29;72.63;101341.84;4974027;28;20478;-74
2023/03/16 02:37:55;;;;;;;6.70;2.67;;;;;;;3.26;73.15;101344.31;4979668;28;20050;-74
2023/03/16 02:40:27;;;;;;;7.30;3.00;;;;;;;3.25;72.94;101337.47;4976395;28;20038;-74
2023/03/16 02:43:01;;;;;;;3.97;2.25;;;;;;;3.31;71.96;101324.91;4970757;28;20099;-73
2023/03/16 02:45:32;;;;;;;8.43;4.30;;;;;;;3.32;72.24;101318.09;4989799;28;20072;-73
2023/03/16 02:48:02;;;;;;;6.35;2.58;;;;;;;3.30;71.80;101323.16;4979084;28;20039;-74
2023/03/16 02:50:28;;;;;;;6.32;2.72;;;;;;;3.26;72.33;101317.91;4973389;28;20093;-74
2023/03/16 02:52:53;;;;;;;5.43;2.33;;;;;;;3.24;72.23;101332.31;4981948;28;20068;-74
2023/03/16 02:55:20;;;;;;;6.78;2.50;;;;;;;3.26;72.20;101323.88;4982922;28;20137;-73
2023/03/16 02:57:46;;;;;;;8.60;2.90;;;;;;;3.28;72.43;101321.38;4976408;28;20046;-73
2023/03/16 03:00:16;;;;;;;5.00;2.92;;;;;;;3.24;72.56;101335.75;4977710;28;20065;-73
2023/03/16 03:02:42;;;;;;;6.28;2.85;;;;;;;3.21;72.76;101333.09;4978227;28;20091;-73
2023/03/16 03:05:07;;;;;;;5.60;2.67;;;;;;;3.22;72.89;101329.72;4971911;28;20050;-74
2023/03/16 03:07:33;;;;;;;8.48;2.95;;;;;;;3.19;72.95;101333.88;4977001;28;20508;-74
2023/03/16 03:09:58;;;;;;;4.95;3.03;;;;;;;3.16;73.48;101336.34;4980995;28;20463;-73
2023/03/16 03:12:23;;;;;;;4.47;2.97;;;;;;;3.20;73.20;101331.34;4979569;28;20046;-73
2023/03/16 03:14:49;;;;;;;5.38;2.85;;;;;;;3.21;73.71;101327.09;4981031;28;20072;-73
2023/03/16 03:17:14;;;;;;;7.78;3.22;;;;;;;3.21;73.72;101320.31;4990389;28;20034;-73
2023/03/16 03:19:40;;;;;;;6.47;3.47;;;;;;;3.21;73.11;101325.44;4984230;28;20850;-73
2023/03/16 03:22:06;;;;;;;7.40;3.30;;;;;;;3.22;73.03;101305.88;4979464;28;20049;-73
2023/03/16 03:24:33;;;;;;;9.05;3.35;;;;;;;3.20;73.52;101318.56;4978024;28;20053;-74
2023/03/16 03:27:04;;;;;;;5.13;3.30;;;;;;;3.20;73.18;101310.06;4979110;28;20039;-74
2023/03/16 03:29:33;;;;;;;6.47;3.47;;;;;;;3.24;73.27;101322.09;4974640;28;20046;-73
2023/03/16 03:32:02;;;;;;;8.45;3.85;;;;;;;3.21;73.81;101322.88;4980676;28;20052;-74
2023/03/16 03:34:28;;;;;;;5.68;3.38;;;;;;;3.19;73.39;101321.97;4976874;28;20026;-73
2023/03/16 03:36:54;;;;;;;8.45;3.38;;;;;;;3.18;73.68;101330.44;4978539;28;20038;-73
2023/03/16 03:39:20;;;;;;;8.50;3.55;;;;;;;3.16;74.16;101332.09;4980079;28;20053;-70
2023/03/16 03:41:45;;;;;;;5.72;2.85;;;;;;;3.13;74.36;101331.13;4982902;28;20045;-69
2023/03/16 03:44:10;;;;;;;6.70;3.25;;;;;;;3.02;74.53;101341.03;4982305;28;20591;-70
2023/03/16 03:46:36;;;;;;;6.35;3.50;;;;;;;2.91;74.79;101342.34;4980784;28;20088;-68
2023/03/16 03:49:04;;;;;;;7.00;3.42;;;;;;;2.95;74.35;101336.53;4973465;28;20035;-69
2023/03/16 03:51:32;;;;;;;3.90;2.88;;;;;;;2.87;75.10;101338.00;4976774;28;20038;-68
2023/03/16 03:53:58;;;;;;;6.45;3.00;;;;;;;2.80;75.36;101341.16;4971664;28;20053;-69
2023/03/16 03:56:24;;;;;;;7.90;3.50;;;;;;;2.80;75.75;101344.59;4978094;28;20038;-69
2023/03/16 03:58:49;;;;;;;6.97;3.13;;;;;;;2.78;75.52;101340.25;4975972;28;20034;-69
2023/03/16 04:01:15;;;;;;;6.97;3.63;;;;;;;2.82;75.54;101329.31;4979526;28;20045;-69
2023/03/16 04:03:41;;;;;;;6.38;3.08;;;;;;;2.80;75.89;101336.94;4977749;28;20125;-69
2023/03/16 04:06:07;;;;;;;7.00;3.03;;;;;;;2.81;75.55;101342.91;4985185;28;20092;-69
2023/03/16 04:08:33;;;;;;;7.40;3.05;;;;;;;2.84;75.55;101333.66;4975959;28;20118;-69
2023/03/16 04:10:59;;;;;;;6.40;3.28;;;;;;;2.85;75.75;101334.50;4980436;28;20037;-68
2023/03/16 04:13:25;;;;;;;7.32;3.13;;;;;;;2.88;75.70;101338.03;4989730;28;20033;-68
2023/03/16 04:15:58;;;;;;;8.98;3.30;;;;;;;2.95;75.02;101323.78;4972795;28;20816;-69
2023/03/16 04:18:24;;;;;;;7.97;3.38;;;;;;;2.96;75.20;101323.81;4971544;28;20121;-69
2023/03/16 04:20:51;;;;;;;6.18;3.58;;;;;;;3.02;75.14;101323.16;4971485;28;20443;-69
2023/03/16 04:23:18;;;;;;;5.72;2.67;;;;;;;3.07;74.64;101313.94;4975075;28;20065;-68
2023/03/16 04:25:44;;;;;;;9.98;3.42;;;;;;;3.14;74.59;101304.78;4969493;28;20436;-70
2023/03/16 04:28:09;;;;;;;6.07;3.38;;;;;;;3.14;74.84;101305.63;4969933;28;20799;-70
2023/03/16 04:30:35;;;;;;;9.50;3.75;;;;;;;3.19;74.09;101306.66;4976519;28;20054;-69
2023/03/16 04:33:00;;;;;;;7.43;3.58;;;;;;;3.21;73.94;101297.34;4973782;28;20038;-69
2023/03/16 04:35:26;;;;;;;8.35;4.38;;;;;;;3.26;74.11;101300.88;4971039;28;20053;-69
2023/03/16 04:37:52;;;;;;;6.72;3.63;;;;;;;3.32;74.06;101293.38;4975455;28;20130;-69
2023/03/16 04:40:18;;;;;;;6.20;4.13;;;;;;;3.33;74.32;101291.72;4968223;28;20031;-70
2023/03/16 04:42:45;;;;;;;8.52;4.00;;;;;;;3.39;74.11;101281.66;4973733;28;20443;-69
2023/03/16 04:45:11;;;;;;;8.57;4.38;;;;;;;3.43;73.30;101278.38;4972721;28;20049;-69
2023/03/16 04:47:37;;;;;;;7.82;3.72;;;;;;;3.43;73.97;101269.03;4971665;28;20046;-70
2023/03/16 04:50:03;;;;;;;8.15;3.63;;;;;;;3.48;73.70;101266.59;4977849;28;20045;-69
2023/03/16 04:52:29;;;;;;;8.88;4.93;;;;;;;3.51;73.82;101266.69;4992299;28;20036;-68
2023/03/16 04:54:55;;;;;;;8.30;4.45;;;;;;;3.56;72.98;101260.00;4978753;28;20082;-69
2023/03/16 04:57:21;;;;;;;6.10;3.92;;;;;;;3.60;73.56;101255.84;4983663;28;20034;-70
2023/03/16 04:59:47;;;;;;;7.95;4.80;;;;;;;3.62;73.25;101249.94;4972302;28;20043;-70
2023/03/16 05:02:13;;;;;;;9.23;4.35;;;;;;;3.61;73.46;101255.03;4969994;28;20046;-69
2023/03/16 05:04:38;;;;;;;8.05;3.75;;;;;;;3.63;72.84;101248.25;4972509;28;20030;-69
2023/03/16 05:07:04;;;;;;;8.77;4.38;;;;;;;3.64;72.97;101237.22;4969261;28;20045;-69
2023/03/16 05:09:29;;;;;;;6.68;3.97;;;;;;;3.69;72.34;101231.41;4973752;28;20109;-71
2023/03/16 05:11:54;;;;;;;8.00;4.25;;;;;;;3.69;72.42;101243.31;4975142;28;20744;-70
2023/03/16 05:14:20;;;;;;;15.90;5.18;;;;;;;3.70;71.99;101235.69;4972780;28;20046;-69
2023/03/16 05:16:45;;;;;;;7.10;4.40;;;;;;;3.77;72.29;101229.91;4976267;28;20038;-70
2023/03/16 05:19:11;;;;;;;8.73;4.25;;;;;;;3.79;71.88;101233.41;4972670;28;20038;-71
2023/03/16 05:21:37;;;;;;;7.50;3.90;;;;;;;3.72;72.19;101249.38;4968424;28;20130;-70
2023/03/16 05:24:07;;;;;;;9.05;4.60;;;;;;;3.74;72.75;101241.75;4973738;28;20101;-70
2023/03/16 05:26:33;;;;;;;6.05;4.05;;;;;;;3.70;71.98;101238.25;4981468;28;20100;-70
2023/03/16 05:28:59;;;;;;;9.95;4.30;;;;;;;3.75;72.40;101236.69;4964726;28;20046;-70
2023/03/16 05:31:31;;;;;;;7.25;4.40;;;;;;;3.72;72.28;101239.16;4962029;28;20035;-69
2023/03/16 05:33:57;;;;;;;8.82;4.50;;;;;;;3.71;72.36;101245.09;4974555;28;20050;-71
2023/03/16 05:36:23;;;;;;;7.53;4.55;;;;;;;3.72;72.94;101251.06;4969904;28;20046;-70
2023/03/16 05:38:49;;;;;;;8.43;4.75;;;;;;;3.76;72.63;101250.34;4991743;28;20107;-70
2023/03/16 05:41:17;;;;;;;6.40;4.13;;;;;;;3.82;72.48;101242.81;4995542;28;20050;-71
2023/03/16 05:43:42;;;;;;;7.57;3.97;;;;;;;3.83;71.88;101237.75;4979003;28;20041;-70
2023/03/16 05:46:08;;;;;;;7.40;4.45;;;;;;;3.82;72.09;101241.16;4983752;28;20022;-70
2023/03/16 05:48:34;;;;;;;7.45;4.20;;;;;;;3.85;72.10;101242.91;4977570;28;20073;-70
2023/03/16 05:51:00;;;;;;;9.45;4.82;;;;;;;3.85;72.18;101242.91;4983992;28;20056;-70
2023/03/16 05:53:27;;;;;;;9.52;4.70;;;;;;;3.84;71.92;101230.94;4987088;28;20730;-70
2023/03/16 05:55:56;;;;;;;6.63;4.03;;;;;;;3.88;71.85;101232.75;4980332;28;20034;-70
2023/03/16 05:58:21;;;;;;;6.55;4.32;;;;;;;3.85;71.90;101248.91;4976652;28;20026;-70
2023/03/16 06:00:47;;;;;;;8.75;5.15;;;;;;;3.79;71.77;101246.19;4966870;28;20093;-69
2023/03/16 06:03:12;;;;;;;8.35;4.47;;;;;;;3.83;72.28;101252.22;4987104;28;20038;-70
2023/03/16 06:05:38;;;;;;;9.40;4.47;;;;;;;3.81;71.67;101238.53;4968282;28;20042;-71
2023/03/16 06:08:03;;;;;;;7.22;4.22;;;;;;;3.79;72.43;101252.97;4982105;28;20876;-69
2023/03/16 06:10:29;;;;;;;10.68;5.18;;;;;;;3.83;72.08;101247.09;4988477;28;20033;-69
2023/03/16 06:12:54;;;;;;;7.32;4.65;;;;;;;3.85;72.08;101253.13;4967343;28;20072;-69
2023/03/16 06:15:23;;;;;;;10.52;5.32;;;;;;;3.86;72.05;101255.72;4980338;28;20625;-70
2023/03/16 06:17:49;;;;;;;7.65;4.82;;;;;;;3.87;71.83;101260.03;4980153;28;20042;-70
2023/03/16 06:20:16;;;;;;;8.52;4.80;;;;;;;3.94;71.39;101245.72;4972793;28;20322;-69
2023/03/16 06:22:42;;;;;;;7.90;4.75;;;;;;;3.95;71.25;101250.84;4972040;28;20030;-67
2023/03/16 06:25:09;;;;;;;9.60;5.38;;;;;;;3.96;71.98;101251.72;4971594;28;20041;-70
2023/03/16 06:27:35;;;;;;;11.30;5.07;;;;;;;4.00;71.66;101251.81;4971412;28;20563;-69
2023/03/16 06:30:01;;;;;;;8.77;4.45;;;;;;;4.03;72.12;101256.19;4986668;28;20542;-69
2023/03/16 06:32:26;;;;;;;10.32;4.45;;;;;;;4.09;72.05;101257.16;4987655;28;20038;-69
2023/03/16 06:34:52;;;;;;;9.15;4.68;;;;;;;4.17;71.27;101254.81;4974147;28;20039;-69
2023/03/16 06:37:17;;;;;;;6.82;4.85;;;;;;;4.28;71.18;101239.72;4985724;28;20041;-69
2023/03/16 06:39:43;;;;;;;8.88;4.68;;;;;;;4.36;70.21;101244.19;4966607;28;20142;-69
2023/03/16 06:42:09;;;;;;;9.23;4.53;;;;;;;4.43;70.63;101240.97;4966127;28;20122;-69
2023/03/16 06:44:34;;;;;;;11.15;4.63;;;;;;;4.48;70.39;101226.56;4977669;28;20053;-69
2023/03/16 06:47:00;;;;;;;9.75;5.55;;;;;;;4.53;71.08;101244.63;4981027;28;20038;-69
2023/03/16 06:49:25;;;;;;;12.45;5.15;;;;;;;4.54;69.70;101207.94;4967087;28;20045;-69
2023/03/16 06:51:51;;;;;;;8.68;5.43;;;;;;;4.59;70.06;101224.28;4974759;28;20078;-69
2023/03/16 06:54:16;;;;;;;9.30;5.05;;;;;;;4.66;70.16;101221.00;4975411;28;20085;-69
2023/03/16 06:56:41;;;;;;;8.93;4.97;;;;;;;4.73;69.68;101220.34;4974903;28;20045;-69
2023/03/16 06:59:07;;;;;;;12.95;5.47;;;;;;;4.79;69.30;101227.28;4972481;28;20491;-69
2023/03/16 07:01:32;;;;;;;8.25;4.60;;;;;;;4.84;69.21;101221.44;4971864;28;20046;-69
2023/03/16 07:03:58;;;;;;;9.77;4.68;;;;;;;4.88;69.67;101220.66;4973993;28;20029;-69
2023/03/16 07:06:23;;;;;;;11.57;5.88;;;;;;;4.94;68.47;101213.13;5000310;28;20297;-69
2023/03/16 07:08:49;;;;;;;8.13;5.18;;;;;;;4.98;69.09;101216.63;4994157;28;20298;-69
2023/03/16 07:11:14;;;;;;;10.88;4.88;;;;;;;4.96;68.41;101210.56;4992811;28;20109;-70
2023/03/16 07:13:40;;;;;;;6.97;4.25;;;;;;;5.00;68.44;101192.75;4984320;28;20456;-70
2023/03/16 07:16:06;;;;;;;7.80;4.97;;;;;;;5.04;68.38;101194.53;4978026;28;20054;-69
2023/03/16 07:18:32;;;;;;;9.38;5.70;;;;;;;5.13;68.32;101199.00;4974023;28;20125;-70
2023/03/16 07:20:57;;;;;;;7.38;4.95;;;;;;;5.23;68.38;101208.59;4971382;28;20045;-70
2023/03/16 07:23:23;;;;;;;9.70;4.53;;;;;;;5.34;67.36;101180.63;4986535;28;20046;-70
2023/03/16 07:25:50;;;;;;;10.65;4.90;;;;;;;5.47;67.74;101174.88;4997701;28;20070;-70
2023/03/16 07:28:19;;;;;;;7.88;4.82;;;;;;;5.56;67.43;101172.50;4982399;28;20575;-69
2023/03/16 07:30:45;;;;;;;7.25;4.80;;;;;;;5.66;67.12;101159.00;4973268;28;21271;-70
2023/03/16 07:33:11;;;;;;;8.48;4.78;;;;;;;5.76;66.01;101142.91;4983016;28;20050;-69
2023/03/16 07:35:36;;;;;;;8.27;5.32;;;;;;;5.82;66.55;101150.72;4980678;28;20046;-69
2023/03/16 07:38:03;;;;;;;10.75;4.95;;;;;;;5.83;65.47;101142.19;4972252;28;20396;-70
2023/03/16 07:40:28;;;;;;;8.13;4.95;;;;;;;5.90;66.24;101161.13;4982973;28;20041;-69
2023/03/16 07:42:53;;;;;;;7.78;4.85;;;;;;;5.97;65.62;101142.41;4972796;28;20034;-70
2023/03/16 07:45:20;;;;;;;9.73;4.70;;;;;;;6.06;65.78;101145.13;4979242;28;20046;-69
2023/03/16 07:47:46;;;;;;;6.00;4.28;;;;;;;6.20;65.67;101147.06;4985963;28;20044;-69
2023/03/16 07:50:14;;;;;;;10.00;4.53;;;;;;;6.35;64.86;101131.03;4990956;28;20046;-70
2023/03/16 07:52:39;;;;;;;7.88;4.47;;;;;;;6.43;64.49;101134.59;4990630;28;20034;-70
2023/03/16 07:55:06;;;;;;;10.88;6.45;;;;;;;6.52;64.23;101123.56;4996932;28;20050;-70
2023/03/16 07:57:31;;;;;;;7.72;3.88;;;;;;;6.54;63.52;101099.63;4978546;28;20038;-70
2023/03/16 07:59:58;;;;;;;8.52;4.20;;;;;;;6.62;63.75;101125.41;4971354;28;20105;-70
2023/03/16 08:02:23;;;;;;;7.32;4.10;;;;;;;6.65;63.84;101116.03;4974460;28;20126;-70
2023/03/16 08:04:48;;;;;;;8.73;4.85;;;;;;;6.67;63.51;101111.81;4975386;28;20570;-70
2023/03/16 08:07:15;;;;;;;8.00;4.63;;;;;;;6.68;63.04;101118.66;4981462;28;20065;-70
2023/03/16 08:09:40;;;;;;;10.05;4.70;;;;;;;6.74;62.72;101092.19;4970787;28;20821;-71
2023/03/16 08:12:07;;;;;;;9.10;5.28;;;;;;;6.69;62.97;101101.53;4983448;28;20045;-70
2023/03/16 08:14:33;;;;;;;6.88;4.32;;;;;;;6.80;63.54;101112.81;4983015;28;20047;-69
2023/03/16 08:16:59;;;;;;;10.25;4.72;;;;;;;6.88;63.20;101096.63;4978877;28;20039;-70
2023/03/16 08:19:26;;;;;;;8.32;5.30;;;;;;;6.94;62.27;101088.16;4976577;28;20031;-71
2023/03/16 08:21:51;;;;;;;10.18;4.90;;;;;;;7.00;62.58;101108.75;4997499;28;20041;-71
2023/03/16 08:24:16;;;;;;;10.55;5.18;;;;;;;7.01;62.60;101102.78;4977645;28;20157;-70
2023/03/16 08:26:42;;;;;;;8.10;4.90;;;;;;;7.13;62.46;101107.19;4987408;28;20555;-71
2023/03/16 08:29:07;;;;;;;10.27;5.40;;;;;;;7.18;62.03;101100.44;4977094;28;20066;-70
2023/03/16 08:31:34;;;;;;;9.60;5.05;;;;;;;7.30;62.20;101104.00;4992437;28;20064;-69
2023/03/16 08:33:59;;;;;;;7.20;4.70;;;;;;;7.40;61.67;101094.66;4986540;28;20760;-69
2023/03/16 08:36:27;;;;;;;8.40;4.80;;;;;;;7.50;61.66;101101.63;4977644;28;20043;-70
2023/03/16 08:38:54;;;;;;;6.80;4.68;;;;;;;7.66;61.46;101094.88;4979705;28;20026;-70
2023/03/16 08:41:19;;;;;;;8.60;5.20;;;;;;;7.74;60.60;101081.28;4967886;28;20050;-70
2023/03/16 08:43:45;;;;;;;8.70;4.82;;;;;;;7.83;60.67;101075.31;4984642;28;20038;-69
2023/03/16 08:46:12;;;;;;;7.20;4.85;;;;;;;7.93;61.13;101088.25;4976018;28;20122;-69
2023/03/16 08:48:39;;;;;;;7.50;5.80;;;;;;;8.07;59.86;101072.06;4977384;28;20031;-69
2023/03/16 08:51:05;;;;;;;6.65;5.00;;;;;;;8.01;59.93;101063.44;4975884;28;20046;-70
2023/03/16 08:53:31;;;;;;;7.45;5.05;;;;;;;8.12;59.66;101058.38;4990190;28;20061;-69
2023/03/16 08:56:05;;;;;;;7.85;5.45;;;;;;;8.09;59.91;101052.34;4976320;28;20042;-70
2023/03/16 08:58:32;;;;;;;10.50;5.18;;;;;;;8.06;60.18;101065.19;4982162;28;20034;-69
2023/03/16 09:00:59;;;;;;;12.18;5.40;;;;;;;8.04;60.54;101078.03;4979348;28;20089;-69
2023/03/16 09:03:25;;;;;;;9.05;5.82;;;;;;;8.13;60.39;101090.97;4976901;28;20953;-68
2023/03/16 09:05:51;;;;;;;8.75;5.53;;;;;;;8.07;60.69;101090.09;4975889;28;20048;-69
2023/03/16 09:08:17;;;;;;;8.63;5.90;;;;;;;8.04;60.17;101080.59;4966734;28;20068;-69
2023/03/16 09:10:43;;;;;;;7.50;5.10;;;;;;;7.94;60.64;101084.84;4974727;28;20042;-69
2023/03/16 09:13:09;;;;;;;10.07;6.38;;;;;;;7.90;60.64;101098.53;4994891;28;20033;-69
2023/03/16 09:15:35;;;;;;;8.40;5.65;;;;;;;7.99;61.80;101108.03;4973870;28;20039;-69
2023/03/16 09:18:02;;;;;;;9.07;5.97;;;;;;;8.11;61.12;101078.94;4973666;28;20038;-69
2023/03/16 09:20:28;;;;;;;8.60;5.70;;;;;;;8.32;60.22;101074.78;4968914;28;20794;-69
2023/03/16 09:22:54;;;;;;;8.15;5.43;;;;;;;8.48;59.97;101070.59;4971927;28;20038;-69
2023/03/16 09:25:19;;;;;;;8.38;5.78;;;;;;;8.46;60.03;101061.97;4972936;28;20022;-69
2023/03/16 09:27:45;;;;;;;8.50;5.82;;;;;;;8.36;59.65;101061.09;4980424;28;20042;-69
2023/03/16 09:30:12;;;;;;;7.80;5.18;;;;;;;8.43;59.52;101060.25;4970220;28;20034;-69
2023/03/16 09:32:37;;;;;;;8.43;5.53;;;;;;;8.58;59.38;101065.47;4972527;28;20069;-69
2023/03/16 09:35:05;;;;;;;10.75;5.38;;;;;;;8.71;59.11;101058.66;4972399;28;20118;-69
2023/03/16 09:37:31;;;;;;;10.38;5.30;;;;;;;8.62;58.81;101052.59;4975822;28;20070;-69
2023/03/16 09:39:57;;;;;;;10.77;5.63;;;;;;;8.75;59.42;101057.81;4991150;28;20403;-70
2023/03/16 09:42:47;;;;;;;8.65;5.72;;;;;;;8.82;58.41;101033.78;4988880;28;20035;-69
2023/03/16 09:45:12;;;;;;;8.57;5.18;;;;;;;8.85;58.46;101025.19;4985985;28;20038;-68
2023/03/16 09:47:39;;;;;;;11.88;5.22;;;;;;;8.94;58.46;101048.41;4971505;28;20042;-70
2023/03/16 09:50:10;;;;;;;8.32;5.82;;;;;;;9.02;58.52;101034.69;4972913;28;20039;-69
2023/03/16 09:52:54;;;;;;;11.32;6.38;;;;;;;9.04;57.99;101033.00;4977517;28;20031;-69
2023/03/16 09:55:30;;;;;;;9.50;5.53;;;;;;;9.05;57.12;101015.81;4978192;28;20490;-69
2023/03/16 09:57:58;;;;;;;11.20;5.43;;;;;;;9.08;58.35;101026.97;4961245;28;20042;-69
2023/03/16 10:00:25;;;;;;;8.13;5.45;;;;;;;9.05;57.89;101023.53;4996098;28;20450;-72
2023/03/16 10:03:16;;;;;;;10.13;5.70;;;;;;;9.12;57.99;101020.97;4991742;28;20447;-72
2023/03/16 10:05:42;;;;;;;8.40;5.25;;;;;;;9.11;57.60;101008.06;4966932;28;20104;-73
2023/03/16 10:08:15;;;;;;;8.27;5.63;;;;;;;9.13;57.94;101029.56;4975988;28;20034;-73
2023/03/16 10:10:45;;;;;;;8.40;5.63;;;;;;;9.14;58.60;101019.22;4973768;28;20548;-71
2023/03/16 10:13:31;;;;;;;9.75;5.50;;;;;;;9.00;58.01;101002.03;4969422;28;20125;-72
2023/03/16 10:16:01;;;;;;;14.98;5.43;;;;;;;8.94;58.32;101027.78;4965596;28;20042;-72
2023/03/16 10:18:33;;;;;;;8.43;5.30;;;;;;;8.99;58.59;101036.41;4966482;28;20041;-72
2023/03/16 10:21:01;;;;;;;8.13;5.45;;;;;;;9.04;58.65;101034.69;4978601;28;20042;-72
2023/03/16 10:23:30;;;;;;;12.98;5.22;;;;;;;9.04;58.64;101032.13;4976759;28;20057;-72
2023/03/16 10:25:56;;;;;;;8.35;5.45;;;;;;;9.08;58.52;101036.41;4977942;28;20038;-71
2023/03/16 10:28:25;;;;;;;9.95;5.22;;;;;;;9.07;58.56;101024.41;4979992;28;20019;-71
2023/03/16 10:30:54;;;;;;;8.20;4.82;;;;;;;9.19;58.82;101031.28;4973077;28;20471;-72
2023/03/16 10:33:30;;;;;;;8.40;5.72;;;;;;;9.31;57.15;101005.50;4966554;28;20797;-73
2023/03/16 10:36:23;;;;;;;9.43;5.90;;;;;;;9.35;57.39;101010.66;4970713;28;20063;-72
2023/03/16 10:38:57;;;;;;;10.32;5.30;;;;;;;9.50;56.98;101005.50;4970539;28;20054;-73
2023/03/16 10:41:34;;;;;;;10.30;6.28;;;;;;;9.60;55.89;100984.03;4989733;28;20118;-73
2023/03/16 10:44:13;;;;;;;6.82;5.07;;;;;;;9.68;56.15;100986.59;4996211;28;20205;-72
2023/03/16 10:46:47;;;;;;;11.80;5.55;;;;;;;9.89;56.17;100983.97;4980478;28;20131;-71
2023/03/16 10:49:26;;;;;;;8.00;4.40;;;;;;;10.26;55.90;100977.00;4983016;28;20034;-72
2023/03/16 10:51:58;;;;;;;8.80;5.13;;;;;;;10.55;54.28;100956.19;4992593;28;20053;-73
2023/03/16 10:54:32;;;;;;;7.22;4.43;;;;;;;10.70;52.92;100930.25;4999637;28;20395;-73
2023/03/16 10:56:59;;;;;;;6.55;4.25;;;;;;;10.76;55.06;100951.75;4989454;28;20038;-72
2023/03/16 10:59:37;;;;;;;7.97;4.47;;;;;;;10.87;54.08;100931.00;4993170;28;20760;-72
2023/03/16 11:02:14;;;;;;;6.82;4.60;;;;;;;11.11;53.05;100910.13;5002577;28;20760;-71
2023/03/16 11:04:40;;;;;;;9.07;4.93;;;;;;;11.02;52.61;100907.59;5000141;28;20056;-72
2023/03/16 11:07:10;;;;;;;7.43;4.60;;;;;;;11.03;52.85;100901.56;4992281;28;20479;-72
2023/03/16 11:09:36;;;;;;;8.02;4.20;;;;;;;10.96;52.68;100902.47;4991060;28;20108;-71
2023/03/16 11:12:14;;;;;;;7.63;4.43;;;;;;;10.97;53.40;100904.19;4999993;28;20038;-72
2023/03/16 11:14:43;;;;;;;6.97;4.20;;;;;;;10.94;52.96;100900.78;4998594;28;20048;-72
2023/03/16 11:17:16;;;;;;;5.47;4.18;;;;;;;10.97;52.80;100903.34;4996367;28;20057;-74
2023/03/16 11:19:53;;;;;;;5.78;4.10;;;;;;;11.19;52.45;100887.63;4996546;28;20715;-72
2023/03/16 11:22:24;;;;;;;5.00;3.72;;;;;;;11.33;52.33;100892.69;5003067;28;20060;-74
2023/03/16 11:25:01;;;;;;;5.25;3.65;;;;;;;11.56;51.35;100871.75;5004119;28;20152;-73
2023/03/16 11:27:44;;;;;;;7.40;4.15;;;;;;;11.76;51.13;100880.16;5011909;28;20194;-72
2023/03/16 11:30:34;;;;;;;6.82;3.53;;;;;;;11.95;51.62;100886.88;4999210;28;20511;-73
2023/03/16 11:33:00;;;;;;;5.88;3.47;;;;;;;11.92;50.68;100868.75;4994197;28;20154;-72
2023/03/16 11:35:38;;;;;;;5.28;3.60;;;;;;;11.91;50.33;100869.63;4992673;28;20065;-71